createdAt,value
2019-05-02T00:01:45.315Z,38.08
2019-05-02T00:07:14.394Z,35.40
2019-05-02T00:12:54.345Z,32.20
2019-05-02T00:15:27.630Z,37.42
2019-05-02T00:18:09.675Z,37.55
2019-05-02T00:21:06.891Z,43.28
2019-05-02T00:24:02.858Z,44.77
2019-05-02T00:26:50.566Z,45.52
2019-05-02T00:29:45.579Z,44.05
2019-05-02T00:32:28.568Z,40.10
2019-05-02T00:35:40.903Z,39.10
2019-05-02T00:38:18.084Z,40.83
2019-05-02T00:54:07.495Z,37.20
2019-05-02T00:57:23.726Z,38.67
2019-05-02T01:03:47.239Z,37.00
2019-05-02T01:06:32.723Z,38.88
2019-05-02T01:09:13.846Z,37.65
2019-05-02T01:18:12.121Z,35.38
2019-05-02T01:20:58.087Z,33.33
2019-05-02T01:27:10.194Z,33.50
2019-05-02T01:30:13.594Z,36.05
2019-05-02T01:35:17.654Z,44.17
2019-05-02T01:38:06.403Z,48.73
2019-05-02T01:40:48.171Z,44.80
2019-05-02T01:43:59.990Z,41.90
2019-05-02T01:46:35.960Z,44.30
2019-05-02T01:52:32.496Z,40.48
2019-05-02T01:55:24.548Z,39.30
2019-05-02T01:58:05.933Z,37.73
2019-05-02T02:01:43.993Z,41.13
2019-05-02T02:04:08.775Z,40.17
2019-05-02T02:07:35.692Z,42.90
2019-05-02T02:10:14.953Z,42.85
2019-05-02T02:13:04.646Z,39.53
2019-05-02T02:15:35.104Z,37.53
2019-05-02T02:18:48.405Z,39.00
2019-05-02T02:24:38.384Z,38.70
2019-05-02T02:27:14.145Z,43.25
2019-05-02T02:29:58.087Z,41.77
2019-05-02T02:35:25.946Z,47.65
2019-05-02T02:41:54.240Z,49.03
2019-05-02T02:50:45.470Z,52.50
2019-05-02T02:54:03.609Z,51.58
2019-05-02T02:56:21.190Z,50.05
2019-05-02T03:05:25.908Z,49.63
2019-05-02T03:08:22.507Z,49.05
2019-05-02T03:14:00.073Z,49.45
2019-05-02T03:16:40.312Z,50.75
2019-05-02T03:19:21.096Z,49.90
2019-05-02T03:27:57.602Z,50.90
2019-05-02T03:30:49.255Z,53.15
2019-05-02T03:34:01.196Z,51.75
2019-05-02T03:37:14.249Z,50.03
2019-05-02T03:43:18.939Z,49.05
2019-05-02T03:46:13.566Z,52.75
2019-05-02T03:49:40.803Z,52.62
2019-05-02T03:52:36.702Z,52.43
2019-05-02T03:59:00.553Z,49.42
2019-05-02T04:04:44.008Z,48.30
2019-05-02T04:07:40.847Z,50.25
2019-05-02T04:11:10.264Z,47.08
2019-05-02T04:13:42.932Z,48.85
2019-05-02T04:20:22.653Z,49.18
2019-05-02T04:29:31.264Z,45.90
2019-05-02T04:32:28.035Z,45.43
2019-05-02T04:35:28.697Z,44.15
2019-05-02T04:38:15.236Z,46.10
2019-05-02T04:44:10.248Z,42.08
2019-05-02T04:46:48.898Z,43.75
2019-05-02T04:49:22.169Z,43.15
2019-05-02T04:52:17.142Z,47.10
2019-05-02T05:00:45.018Z,41.83
2019-05-02T05:03:20.981Z,43.63
2019-05-02T05:06:19.344Z,45.40
2019-05-02T05:08:58.638Z,41.85
2019-05-02T05:11:27.454Z,43.63
2019-05-02T05:14:00.506Z,43.75
2019-05-02T05:16:37.312Z,40.80
2019-05-02T05:21:58.820Z,39.73
2019-05-02T05:27:37.678Z,41.27
2019-05-02T05:30:18.035Z,40.58
2019-05-02T05:33:21.471Z,39.23
2019-05-02T05:35:58.518Z,39.78
2019-05-02T05:38:58.372Z,40.20
2019-05-02T05:42:17.810Z,37.35
2019-05-02T05:47:31.475Z,35.13
2019-05-02T05:53:12.292Z,36.85
2019-05-02T05:58:39.962Z,37.00
2019-05-02T06:04:00.369Z,36.50
2019-05-02T06:06:47.957Z,35.70
2019-05-02T06:09:42.473Z,36.38
2019-05-02T06:12:35.570Z,33.75
2019-05-02T06:15:16.837Z,33.13
2019-05-02T06:18:12.542Z,33.70
2019-05-02T06:20:58.357Z,32.00
2019-05-02T06:23:57.577Z,33.42
2019-05-02T06:27:12.666Z,32.20
2019-05-02T06:30:09.399Z,32.58
2019-05-02T06:35:51.735Z,32.63
2019-05-02T06:38:31.990Z,31.45
2019-05-02T06:44:03.878Z,31.10
2019-05-02T06:47:05.588Z,31.05
2019-05-02T06:50:00.662Z,31.55
2019-05-02T06:52:54.020Z,29.75
2019-05-02T06:58:42.008Z,27.73
2019-05-02T07:01:21.444Z,29.20
2019-05-02T07:04:24.894Z,28.27
2019-05-02T07:06:58.919Z,27.35
2019-05-02T07:10:07.402Z,26.05
2019-05-02T07:12:51.290Z,26.57
2019-05-02T07:16:03.551Z,27.10
2019-05-02T07:18:47.618Z,26.55
2019-05-02T07:21:47.272Z,28.17
2019-05-02T07:27:28.387Z,26.97
2019-05-02T07:33:24.563Z,26.20
2019-05-02T07:36:19.127Z,27.22
2019-05-02T07:45:16.165Z,27.30
2019-05-02T07:54:06.491Z,24.98
2019-05-02T07:56:53.423Z,26.65
2019-05-02T07:59:26.048Z,27.25
2019-05-02T08:02:25.021Z,27.17
2019-05-02T08:05:15.701Z,25.05
2019-05-02T08:08:20.417Z,25.95
2019-05-02T08:14:10.526Z,27.40
2019-05-02T08:17:28.269Z,26.25
2019-05-02T08:19:53.634Z,25.50
2019-05-02T08:22:54.624Z,26.97
2019-05-02T08:31:53.394Z,25.45
2019-05-02T08:34:40.454Z,25.37
2019-05-02T08:43:54.355Z,26.45
2019-05-02T08:53:28.616Z,23.12
2019-05-02T08:55:29.906Z,23.80
2019-05-02T09:07:13.775Z,22.87
2019-05-02T09:19:35.229Z,22.02
2019-05-02T09:22:19.626Z,21.25
2019-05-02T09:31:23.389Z,20.43
2019-05-02T09:34:07.712Z,20.12
2019-05-02T09:40:02.041Z,19.40
2019-05-02T09:42:39.467Z,20.27
2019-05-02T09:50:44.640Z,19.12
2019-05-02T09:56:19.398Z,17.02
2019-05-02T09:58:49.373Z,17.77
2019-05-02T10:01:19.904Z,16.97
2019-05-02T10:07:16.520Z,15.95
2019-05-02T10:09:45.130Z,19.00
2019-05-02T10:12:14.583Z,19.57
2019-05-02T10:15:28.208Z,20.50
2019-05-02T10:18:10.268Z,20.75
2019-05-02T10:20:33.184Z,18.80
2019-05-02T10:22:59.597Z,20.12
2019-05-02T10:25:32.814Z,20.72
2019-05-02T10:27:58.736Z,23.25
2019-05-02T10:30:29.033Z,23.12
2019-05-02T10:32:57.702Z,23.25
2019-05-02T10:38:18.006Z,23.65
2019-05-02T10:40:42.458Z,24.32
2019-05-02T10:43:32.662Z,22.62
2019-05-02T10:46:02.472Z,23.00
2019-05-02T10:48:33.212Z,21.00
2019-05-02T10:51:18.561Z,22.00
2019-05-02T10:53:51.678Z,22.52
2019-05-02T10:56:17.381Z,23.18
2019-05-02T10:58:46.106Z,21.80
2019-05-02T11:01:21.858Z,23.12
2019-05-02T11:03:51.949Z,21.35
2019-05-02T11:06:22.255Z,23.32
2019-05-02T11:08:52.389Z,23.32
2019-05-02T11:11:22.082Z,21.57
2019-05-02T11:14:05.782Z,20.15
2019-05-02T11:19:32.550Z,19.73
2019-05-02T11:22:05.292Z,18.27
2019-05-02T11:25:18.021Z,18.30
2019-05-02T11:27:46.352Z,16.00
2019-05-02T11:30:16.718Z,14.63
2019-05-02T11:32:53.751Z,13.70
2019-05-02T11:35:27.948Z,11.95
2019-05-02T11:37:56.663Z,17.25
2019-05-02T11:40:25.799Z,14.40
2019-05-02T11:42:57.302Z,14.70
2019-05-02T11:46:05.540Z,13.25
2019-05-02T11:51:42.120Z,14.38
2019-05-02T11:54:12.956Z,12.90
2019-05-02T11:56:48.968Z,12.07
2019-05-02T11:59:14.791Z,10.82
2019-05-02T12:01:56.967Z,10.75
2019-05-02T12:07:22.960Z,9.83
2019-05-02T12:09:56.849Z,9.88
2019-05-02T12:12:22.723Z,9.15
2019-05-02T12:14:52.801Z,9.93
2019-05-02T12:17:24.096Z,12.98
2019-05-02T12:20:33.964Z,9.90
2019-05-02T12:33:17.851Z,12.50
2019-05-02T12:39:15.654Z,9.83
2019-05-02T12:41:47.763Z,9.83
2019-05-02T12:44:42.597Z,10.58
2019-05-02T12:47:11.928Z,10.38
2019-05-02T12:49:42.404Z,10.63
2019-05-02T12:52:12.917Z,11.15
2019-05-02T12:54:41.747Z,15.30
2019-05-02T12:57:12.351Z,12.05
2019-05-02T12:59:41.678Z,11.80
2019-05-02T13:02:12.248Z,12.13
2019-05-02T13:04:41.879Z,12.58
2019-05-02T13:07:12.644Z,11.75
2019-05-02T13:09:42.026Z,12.05
2019-05-02T13:12:13.396Z,11.50
2019-05-02T13:14:42.390Z,10.03
2019-05-02T13:17:12.001Z,10.13
2019-05-02T13:19:48.386Z,11.40
2019-05-02T13:22:15.688Z,10.82
2019-05-02T13:24:47.123Z,11.75
2019-05-02T13:27:18.042Z,13.20
2019-05-02T13:29:48.082Z,11.43
2019-05-02T13:32:18.945Z,8.50
2019-05-02T13:34:57.122Z,8.95
2019-05-02T13:48:23.442Z,7.75
2019-05-02T13:50:52.398Z,6.55
2019-05-02T13:53:22.698Z,6.72
2019-05-02T13:58:43.599Z,7.65
2019-05-02T14:01:12.400Z,7.12
2019-05-02T14:03:42.050Z,6.50
2019-05-02T14:06:12.358Z,6.95
2019-05-02T14:08:48.819Z,7.10
2019-05-02T14:11:35.347Z,8.20
2019-05-02T14:14:04.161Z,7.95
2019-05-02T14:16:32.947Z,7.72
2019-05-02T14:19:02.964Z,7.17
2019-05-02T14:21:32.270Z,6.87
2019-05-02T14:24:01.686Z,5.70
2019-05-02T14:26:32.701Z,6.80
2019-05-02T14:29:02.553Z,6.47
2019-05-02T14:31:32.351Z,7.12
2019-05-02T14:34:19.251Z,7.60
2019-05-02T14:36:48.058Z,8.25
2019-05-02T14:39:16.867Z,5.92
2019-05-02T14:41:45.646Z,6.50
2019-05-02T14:44:18.007Z,6.55
2019-05-02T14:46:44.730Z,6.45
2019-05-02T14:49:16.618Z,7.10
2019-05-02T14:51:44.194Z,6.60
2019-05-02T14:54:12.997Z,6.65
2019-05-02T14:56:47.571Z,6.47
2019-05-02T14:59:15.367Z,8.93
2019-05-02T15:01:47.029Z,8.18
2019-05-02T15:04:15.938Z,7.55
2019-05-02T15:06:47.440Z,8.38
2019-05-02T15:09:16.776Z,9.90
2019-05-02T15:12:02.935Z,8.43
2019-05-02T15:14:33.595Z,8.28
2019-05-02T15:17:02.851Z,7.47
2019-05-02T15:19:32.928Z,7.92
2019-05-02T15:22:02.444Z,8.03
2019-05-02T15:24:35.370Z,8.75
2019-05-02T15:27:05.538Z,9.53
2019-05-02T15:29:33.681Z,9.05
2019-05-02T15:37:35.980Z,9.53
2019-05-02T15:42:42.215Z,8.95
2019-05-02T15:45:12.471Z,9.25
2019-05-02T15:47:41.937Z,9.73
2019-05-02T15:50:14.787Z,10.13
2019-05-02T15:52:43.968Z,10.25
2019-05-02T15:55:12.841Z,9.70
2019-05-02T15:57:45.423Z,10.35
2019-05-02T16:00:15.523Z,10.72
2019-05-02T16:02:44.344Z,10.32
2019-05-02T16:05:13.865Z,10.50
2019-05-02T16:07:45.519Z,10.08
2019-05-02T16:10:13.508Z,10.18
2019-05-02T16:12:43.879Z,10.08
2019-05-02T16:15:18.178Z,9.60
2019-05-02T16:17:45.011Z,10.35
2019-05-02T16:20:26.347Z,9.80
2019-05-02T16:22:55.626Z,9.50
2019-05-02T16:25:26.039Z,9.33
2019-05-02T16:28:00.467Z,10.40
2019-05-02T16:30:27.732Z,11.05
2019-05-02T16:32:59.011Z,9.63
2019-05-02T16:35:30.788Z,9.88
2019-05-02T16:38:00.298Z,10.30
2019-05-02T16:40:32.349Z,9.63
2019-05-02T16:43:02.906Z,9.38
2019-05-02T16:45:33.078Z,10.48
2019-05-02T16:48:03.323Z,10.38
2019-05-02T16:50:36.663Z,8.85
2019-05-02T16:53:06.703Z,8.85
2019-05-02T16:59:21.383Z,9.10
2019-05-02T17:02:12.644Z,8.58
2019-05-02T17:05:09.526Z,9.13
2019-05-02T17:07:40.717Z,8.38
2019-05-02T17:10:14.625Z,8.25
2019-05-02T17:13:09.922Z,8.18
2019-05-02T17:16:04.052Z,8.13
2019-05-02T17:19:13.515Z,8.13
2019-05-02T17:21:53.077Z,8.98
2019-05-02T17:24:21.952Z,8.75
2019-05-02T17:36:34.076Z,7.80
2019-05-02T17:54:43.831Z,6.33
2019-05-02T17:57:42.003Z,10.30
2019-05-02T18:00:29.368Z,21.07
2019-05-02T18:06:07.511Z,23.45
2019-05-02T18:08:55.155Z,25.10
2019-05-02T18:11:36.381Z,25.62
2019-05-02T18:17:14.615Z,27.48
2019-05-02T18:20:17.908Z,29.60
2019-05-02T18:22:49.106Z,28.55
2019-05-02T18:25:25.110Z,29.07
2019-05-02T18:27:55.536Z,28.98
2019-05-02T18:31:08.678Z,30.17
2019-05-02T18:33:44.058Z,30.15
2019-05-02T18:36:26.676Z,32.55
2019-05-02T18:45:34.246Z,33.25
2019-05-02T18:48:06.746Z,31.80
2019-05-02T18:50:44.302Z,34.75
2019-05-02T18:53:23.483Z,33.58
2019-05-02T18:58:40.687Z,33.28
2019-05-02T19:01:08.615Z,33.53
2019-05-02T19:03:37.176Z,33.67
2019-05-02T19:06:07.565Z,34.10
2019-05-02T19:08:59.468Z,34.35
2019-05-02T19:11:33.658Z,34.83
2019-05-02T19:13:58.175Z,36.15
2019-05-02T19:16:28.883Z,36.33
2019-05-02T19:18:58.017Z,34.30
2019-05-02T19:21:32.037Z,34.20
2019-05-02T19:23:58.176Z,36.90
2019-05-02T19:26:30.123Z,33.60
2019-05-02T19:29:08.289Z,34.18
2019-05-02T19:31:44.289Z,31.77
2019-05-02T19:34:22.803Z,34.30
2019-05-02T19:36:52.859Z,34.20
2019-05-02T19:39:43.609Z,34.13
2019-05-02T19:44:43.914Z,32.48
2019-05-02T19:47:15.785Z,31.02
2019-05-02T19:49:52.233Z,27.82
2019-05-02T19:52:42.877Z,28.52
2019-05-02T19:55:19.971Z,26.85
2019-05-02T19:57:46.803Z,20.48
2019-05-02T20:00:28.883Z,17.52
2019-05-02T20:03:21.888Z,13.93
2019-05-02T20:05:45.280Z,10.25
2019-05-02T20:14:10.290Z,9.35
2019-05-02T20:16:45.873Z,9.13
2019-05-02T20:19:17.293Z,9.30
2019-05-02T20:22:06.514Z,9.63
2019-05-02T20:27:58.221Z,11.38
2019-05-02T20:30:46.273Z,10.70
2019-05-02T20:36:02.570Z,10.50
2019-05-02T20:41:12.798Z,11.15
2019-05-02T20:43:44.943Z,11.30
2019-05-02T20:46:37.933Z,11.93
2019-05-02T20:49:30.086Z,12.55
2019-05-02T20:52:06.289Z,12.93
2019-05-02T21:06:16.089Z,14.38
2019-05-02T21:09:03.355Z,15.53
2019-05-02T21:11:37.635Z,16.15
2019-05-02T21:14:12.190Z,15.20
2019-05-02T21:16:39.147Z,16.07
2019-05-02T21:19:12.364Z,16.02
2019-05-02T21:21:42.671Z,16.87
2019-05-02T21:24:12.118Z,16.23
2019-05-02T21:26:42.318Z,16.67
2019-05-02T21:29:12.136Z,16.85
2019-05-02T21:31:42.519Z,17.25
2019-05-02T21:34:11.775Z,16.07
2019-05-02T21:36:42.398Z,15.88
2019-05-02T21:39:12.496Z,17.25
2019-05-02T21:41:42.332Z,15.53
2019-05-02T21:44:12.955Z,16.85
2019-05-02T21:46:42.342Z,16.97
2019-05-02T21:49:14.509Z,17.42
2019-05-02T21:51:48.280Z,16.02
2019-05-02T21:57:06.452Z,16.00
2019-05-02T21:59:35.020Z,15.05
2019-05-02T22:02:04.497Z,16.20
2019-05-02T22:04:33.037Z,14.78
2019-05-02T22:07:02.053Z,15.90
2019-05-02T22:09:32.357Z,14.38
2019-05-02T22:12:00.965Z,15.32
2019-05-02T22:14:29.643Z,14.05
2019-05-02T22:16:58.630Z,14.25
2019-05-02T22:19:27.282Z,14.35
2019-05-02T22:21:55.923Z,14.20
2019-05-02T22:24:24.495Z,13.15
2019-05-02T22:26:53.374Z,13.60
2019-05-02T22:29:22.149Z,12.68
2019-05-02T22:31:54.560Z,12.35
2019-05-02T22:34:22.937Z,12.82
2019-05-02T22:36:53.875Z,12.13
2019-05-02T22:39:43.734Z,12.07
2019-05-02T22:42:12.879Z,13.48
2019-05-02T22:47:49.273Z,13.00
2019-05-02T22:50:17.928Z,12.68
2019-05-02T22:52:46.532Z,11.08
2019-05-02T22:55:15.243Z,12.88
2019-05-02T22:57:48.215Z,12.30
2019-05-02T23:00:17.325Z,11.75
2019-05-02T23:02:46.239Z,12.07
2019-05-02T23:05:15.057Z,11.38
2019-05-02T23:07:44.961Z,11.00
2019-05-02T23:10:14.626Z,10.53
2019-05-02T23:12:47.767Z,10.18
2019-05-02T23:15:16.367Z,10.25
2019-05-02T23:17:44.980Z,8.88
2019-05-02T23:20:13.875Z,8.95
2019-05-02T23:22:42.463Z,9.35
2019-05-02T23:25:14.297Z,9.15
2019-05-02T23:27:44.645Z,9.23
2019-05-02T23:30:16.801Z,7.80
2019-05-02T23:32:45.650Z,8.65
2019-05-02T23:35:16.245Z,8.68
2019-05-02T23:37:49.024Z,9.10
2019-05-02T23:40:20.722Z,8.20
2019-05-02T23:42:54.801Z,8.50
2019-05-02T23:45:25.236Z,8.20
2019-05-02T23:48:02.152Z,7.75
2019-05-02T23:50:31.039Z,8.70
2019-05-02T23:52:59.616Z,8.48
2019-05-02T23:55:32.207Z,8.40
2019-05-02T23:58:11.964Z,8.20
